ENY2280 KRDG-KTRI
Flight info
| Callsign | ENY2280 |
|---|---|
| Flight time | N/A |
| Altitude | 32000 |
| Route | BOYER V39 LRP BEETS TEXIE LNDIZ |
| Aircraft | E75L/M-SDE3GILORVW/S |
Departure
| Time | 2026-05-08 13:30 |
|---|---|
| Airport | Reading Regional Airport (Carl A Spaatz Field) (KRDG) |
Arrival
| Time | N/A |
|---|---|
| Airport | Tri-Cities Regional TN/VA Airport (KTRI) |
| Time | Latitude | Longitude | Altitude | Speed | Heading |
|---|---|---|---|---|---|
| 2026-05-08 13:06 | 40.37459 | -75.96344 | 337 ft | 0 kts | 301° |
| 2026-05-08 13:24 | 40.37465 | -75.96352 | 335 ft | 4 kts | 325° |
| 2026-05-08 13:24 | 40.37510 | -75.96355 | 334 ft | 5 kts | 355° |
| 2026-05-08 13:24 | 40.37545 | -75.96408 | 331 ft | 14 kts | 302° |
| 2026-05-08 13:25 | 40.37601 | -75.96524 | 332 ft | 15 kts | 308° |
| 2026-05-08 13:25 | 40.37655 | -75.96646 | 332 ft | 17 kts | 300° |
| 2026-05-08 13:25 | 40.37707 | -75.96750 | 333 ft | 6 kts | 328° |
| 2026-05-08 13:25 | 40.37755 | -75.96734 | 334 ft | 9 kts | 35° |
| 2026-05-08 13:26 | 40.37813 | -75.96676 | 335 ft | 11 kts | 38° |
| 2026-05-08 13:26 | 40.37878 | -75.96614 | 333 ft | 12 kts | 36° |
| 2026-05-08 13:26 | 40.37956 | -75.96533 | 331 ft | 17 kts | 38° |
| 2026-05-08 13:26 | 40.38070 | -75.96418 | 323 ft | 21 kts | 37° |
| 2026-05-08 13:27 | 40.38156 | -75.96389 | 317 ft | 15 kts | 353° |
| 2026-05-08 13:27 | 40.38279 | -75.96413 | 309 ft | 22 kts | 352° |
| 2026-05-08 13:27 | 40.38397 | -75.96430 | 306 ft | 12 kts | 359° |
| 2026-05-08 13:27 | 40.38448 | -75.96373 | 304 ft | 3 kts | 82° |
| 2026-05-08 13:28 | 40.38450 | -75.96355 | 302 ft | 4 kts | 82° |
| 2026-05-08 13:28 | 40.38455 | -75.96292 | 301 ft | 9 kts | 98° |
| 2026-05-08 13:28 | 40.38417 | -75.96255 | 303 ft | 0 kts | 170° |
| 2026-05-08 13:29 | 40.38411 | -75.96254 | 305 ft | 7 kts | 172° |
| 2026-05-08 13:29 | 40.38150 | -75.96207 | 315 ft | 80 kts | 172° |
| 2026-05-08 13:29 | 40.37318 | -75.96069 | 375 ft | 155 kts | 174° |
| 2026-05-08 13:29 | 40.36205 | -75.95888 | 940 ft | 165 kts | 180° |
| 2026-05-08 13:30 | 40.35102 | -75.96167 | 1809 ft | 158 kts | 207° |
| 2026-05-08 13:30 | 40.34189 | -75.96947 | 2608 ft | 161 kts | 226° |
| 2026-05-08 13:30 | 40.33440 | -75.98084 | 3342 ft | 170 kts | 236° |
| 2026-05-08 13:30 | 40.32672 | -75.99315 | 4099 ft | 178 kts | 234° |
| 2026-05-08 13:31 | 40.31867 | -76.00594 | 4881 ft | 185 kts | 236° |
| 2026-05-08 13:31 | 40.31077 | -76.01951 | 5655 ft | 190 kts | 239° |
| 2026-05-08 13:31 | 40.30322 | -76.03370 | 6415 ft | 196 kts | 242° |
| 2026-05-08 13:31 | 40.29549 | -76.04900 | 7178 ft | 201 kts | 242° |
| 2026-05-08 13:32 | 40.28780 | -76.06439 | 7933 ft | 207 kts | 242° |
| 2026-05-08 13:32 | 40.27982 | -76.08027 | 8677 ft | 211 kts | 241° |
| 2026-05-08 13:32 | 40.27001 | -76.09491 | 9453 ft | 217 kts | 232° |
| 2026-05-08 13:32 | 40.25949 | -76.10919 | 10225 ft | 218 kts | 232° |
| 2026-05-08 13:33 | 40.24872 | -76.12344 | 10967 ft | 220 kts | 232° |
| 2026-05-08 13:33 | 40.23778 | -76.13766 | 11732 ft | 223 kts | 233° |
| 2026-05-08 13:33 | 40.22626 | -76.15279 | 12007 ft | 250 kts | 233° |
| 2026-05-08 13:33 | 40.21356 | -76.16974 | 12048 ft | 267 kts | 232° |
| 2026-05-08 13:34 | 40.20051 | -76.18676 | 12056 ft | 268 kts | 232° |
| 2026-05-08 13:34 | 40.18722 | -76.20388 | 12048 ft | 269 kts | 232° |
| 2026-05-08 13:34 | 40.17385 | -76.22117 | 11990 ft | 267 kts | 232° |
| 2026-05-08 13:34 | 40.16097 | -76.23786 | 12602 ft | 263 kts | 233° |
| 2026-05-08 13:35 | 40.14793 | -76.25507 | 13277 ft | 269 kts | 233° |
| 2026-05-08 13:35 | 40.13467 | -76.27257 | 13952 ft | 271 kts | 233° |
| 2026-05-08 13:35 | 40.12276 | -76.29126 | 14552 ft | 264 kts | 246° |
| 2026-05-08 13:35 | 40.11672 | -76.31341 | 15170 ft | 256 kts | 264° |
| 2026-05-08 13:36 | 40.11369 | -76.33617 | 15790 ft | 259 kts | 262° |
| 2026-05-08 13:36 | 40.10952 | -76.35938 | 16440 ft | 261 kts | 261° |
| 2026-05-08 13:36 | 40.10528 | -76.38219 | 17087 ft | 262 kts | 261° |
| 2026-05-08 13:36 | 40.10150 | -76.40554 | 17740 ft | 261 kts | 263° |
| 2026-05-08 13:37 | 40.09825 | -76.42884 | 18422 ft | 261 kts | 264° |
| 2026-05-08 13:37 | 40.09518 | -76.45235 | 19022 ft | 262 kts | 264° |
| 2026-05-08 13:37 | 40.09202 | -76.47585 | 19615 ft | 263 kts | 264° |
| 2026-05-08 13:37 | 40.08870 | -76.49937 | 20225 ft | 265 kts | 264° |
| 2026-05-08 13:38 | 40.08527 | -76.52290 | 20845 ft | 265 kts | 264° |
| 2026-05-08 13:38 | 40.08179 | -76.54656 | 21486 ft | 266 kts | 264° |
| 2026-05-08 13:38 | 40.07839 | -76.56999 | 22140 ft | 267 kts | 264° |
| 2026-05-08 13:38 | 40.07497 | -76.59384 | 22810 ft | 268 kts | 264° |
| 2026-05-08 13:39 | 40.07160 | -76.61786 | 23515 ft | 269 kts | 264° |
| 2026-05-08 13:39 | 40.06809 | -76.64195 | 24110 ft | 272 kts | 264° |
| 2026-05-08 13:39 | 40.06435 | -76.66643 | 24700 ft | 276 kts | 264° |
| 2026-05-08 13:39 | 40.06068 | -76.69114 | 25293 ft | 279 kts | 264° |
| 2026-05-08 13:40 | 40.05710 | -76.71620 | 25902 ft | 281 kts | 264° |
| 2026-05-08 13:40 | 40.05360 | -76.74130 | 26526 ft | 282 kts | 264° |
| 2026-05-08 13:40 | 40.05013 | -76.76631 | 27074 ft | 286 kts | 264° |
| 2026-05-08 13:40 | 40.04653 | -76.79233 | 27612 ft | 289 kts | 264° |
| 2026-05-08 13:41 | 40.04294 | -76.81792 | 28146 ft | 291 kts | 263° |
| 2026-05-08 13:41 | 40.03927 | -76.84401 | 28689 ft | 293 kts | 263° |
| 2026-05-08 13:41 | 40.03560 | -76.87020 | 29224 ft | 295 kts | 263° |
| 2026-05-08 13:41 | 40.03188 | -76.89670 | 29764 ft | 296 kts | 263° |
| 2026-05-08 13:42 | 40.02817 | -76.92327 | 30290 ft | 298 kts | 263° |
| 2026-05-08 13:42 | 40.02448 | -76.94972 | 30772 ft | 298 kts | 263° |
| 2026-05-08 13:42 | 40.02076 | -76.97629 | 31270 ft | 298 kts | 263° |
| 2026-05-08 13:42 | 40.01707 | -77.00275 | 31783 ft | 296 kts | 263° |
| 2026-05-08 13:43 | 40.01346 | -77.02884 | 32069 ft | 301 kts | 263° |
| 2026-05-08 13:43 | 40.00988 | -77.05646 | 32071 ft | 314 kts | 264° |
| 2026-05-08 13:43 | 40.00626 | -77.08507 | 32098 ft | 326 kts | 263° |
| 2026-05-08 13:43 | 40.00236 | -77.11467 | 32029 ft | 339 kts | 263° |
| 2026-05-08 13:44 | 39.99812 | -77.14556 | 32041 ft | 350 kts | 263° |
| 2026-05-08 13:44 | 39.99367 | -77.17708 | 32010 ft | 354 kts | 263° |
| 2026-05-08 13:44 | 39.98471 | -77.24022 | 32014 ft | 355 kts | 263° |
| 2026-05-08 13:45 | 39.97591 | -77.30375 | 32010 ft | 356 kts | 263° |
| 2026-05-08 13:45 | 39.96725 | -77.36684 | 32018 ft | 356 kts | 263° |
| 2026-05-08 13:46 | 39.95752 | -77.43013 | 32033 ft | 360 kts | 255° |
| 2026-05-08 13:46 | 39.94611 | -77.45969 | 32058 ft | 370 kts | 243° |
| 2026-05-08 13:46 | 39.93029 | -77.48645 | 32059 ft | 374 kts | 240° |
| 2026-05-08 13:47 | 39.89998 | -77.54066 | 32035 ft | 373 kts | 241° |
| 2026-05-08 13:47 | 39.86735 | -77.59350 | 32033 ft | 376 kts | 238° |
| 2026-05-08 13:48 | 39.84940 | -77.62069 | 32035 ft | 379 kts | 237° |
| 2026-05-08 13:48 | 39.81523 | -77.67294 | 32027 ft | 378 kts | 238° |
| 2026-05-08 13:49 | 39.78214 | -77.72522 | 32044 ft | 377 kts | 238° |
| 2026-05-08 13:49 | 39.74852 | -77.77825 | 32085 ft | 388 kts | 238° |
| 2026-05-08 13:50 | 39.71333 | -77.83367 | 32031 ft | 406 kts | 238° |
| 2026-05-08 13:50 | 39.67718 | -77.89118 | 32035 ft | 412 kts | 237° |
| 2026-05-08 13:51 | 39.64026 | -77.94747 | 32040 ft | 413 kts | 237° |
| 2026-05-08 13:51 | 39.60378 | -78.00368 | 32072 ft | 411 kts | 237° |
| 2026-05-08 13:52 | 39.56733 | -78.06068 | 32050 ft | 411 kts | 237° |
| 2026-05-08 13:52 | 39.53072 | -78.11741 | 32048 ft | 411 kts | 237° |
| 2026-05-08 13:53 | 39.49393 | -78.17418 | 32058 ft | 411 kts | 237° |
| 2026-05-08 13:53 | 39.45743 | -78.23054 | 32039 ft | 411 kts | 237° |
| 2026-05-08 13:54 | 39.42071 | -78.28709 | 32048 ft | 407 kts | 237° |
| 2026-05-08 13:54 | 39.38422 | -78.34320 | 32024 ft | 408 kts | 237° |
| 2026-05-08 13:55 | 39.34769 | -78.39930 | 32042 ft | 408 kts | 237° |
| 2026-05-08 13:56 | 39.29285 | -78.48325 | 32042 ft | 408 kts | 237° |
| 2026-05-08 13:56 | 39.25653 | -78.53872 | 32050 ft | 408 kts | 237° |
| 2026-05-08 13:57 | 39.22014 | -78.59417 | 32044 ft | 398 kts | 238° |
| 2026-05-08 13:57 | 39.18427 | -78.64886 | 32035 ft | 400 kts | 238° |
| 2026-05-08 13:58 | 39.14832 | -78.70362 | 32042 ft | 402 kts | 238° |
| 2026-05-08 13:58 | 39.11202 | -78.75869 | 32052 ft | 402 kts | 238° |
| 2026-05-08 13:59 | 39.07574 | -78.81361 | 32050 ft | 403 kts | 238° |
| 2026-05-08 13:59 | 39.03973 | -78.86805 | 32043 ft | 402 kts | 238° |
| 2026-05-08 14:00 | 39.00376 | -78.92230 | 32074 ft | 397 kts | 238° |
| 2026-05-08 14:00 | 38.96795 | -78.97642 | 32059 ft | 398 kts | 238° |
| 2026-05-08 14:01 | 38.93209 | -79.03034 | 32057 ft | 399 kts | 238° |
| 2026-05-08 14:01 | 38.89621 | -79.08419 | 32078 ft | 400 kts | 238° |
| 2026-05-08 14:02 | 38.86011 | -79.13806 | 32056 ft | 393 kts | 238° |
| 2026-05-08 14:02 | 38.82448 | -79.19067 | 32078 ft | 388 kts | 239° |
| 2026-05-08 14:03 | 38.78963 | -79.24303 | 32059 ft | 385 kts | 239° |
| 2026-05-08 14:03 | 38.75472 | -79.29589 | 32060 ft | 395 kts | 239° |
| 2026-05-08 14:04 | 38.71883 | -79.34908 | 32090 ft | 396 kts | 239° |
| 2026-05-08 14:04 | 38.68299 | -79.40221 | 32070 ft | 395 kts | 239° |
| 2026-05-08 14:05 | 38.64716 | -79.45553 | 32080 ft | 397 kts | 239° |
| 2026-05-08 14:05 | 38.61155 | -79.50822 | 32098 ft | 393 kts | 239° |
| 2026-05-08 14:06 | 38.57594 | -79.56100 | 32083 ft | 393 kts | 239° |
| 2026-05-08 14:06 | 38.54016 | -79.61386 | 32095 ft | 393 kts | 239° |
| 2026-05-08 14:07 | 38.50442 | -79.66657 | 32080 ft | 393 kts | 239° |
| 2026-05-08 14:07 | 38.46854 | -79.71939 | 32087 ft | 393 kts | 239° |
| 2026-05-08 14:08 | 38.43307 | -79.77151 | 32080 ft | 390 kts | 239° |
| 2026-05-08 14:08 | 38.39744 | -79.82380 | 32085 ft | 391 kts | 239° |
| 2026-05-08 14:09 | 38.36170 | -79.87616 | 32097 ft | 391 kts | 239° |
| 2026-05-08 14:09 | 38.32610 | -79.92821 | 32095 ft | 391 kts | 239° |
| 2026-05-08 14:10 | 38.29839 | -79.96866 | 32094 ft | 391 kts | 239° |
| 2026-05-08 14:10 | 38.26268 | -80.02073 | 32099 ft | 391 kts | 239° |
| 2026-05-08 14:11 | 38.22695 | -80.07285 | 32064 ft | 390 kts | 239° |
| 2026-05-08 14:11 | 38.19126 | -80.12470 | 32088 ft | 389 kts | 239° |
| 2026-05-08 14:12 | 38.15556 | -80.17654 | 32087 ft | 389 kts | 239° |
| 2026-05-08 14:12 | 38.12011 | -80.22792 | 32093 ft | 389 kts | 239° |
| 2026-05-08 14:13 | 38.08437 | -80.27956 | 32088 ft | 389 kts | 239° |
| 2026-05-08 14:13 | 38.04855 | -80.33128 | 32028 ft | 390 kts | 239° |
| 2026-05-08 14:13 | 38.03077 | -80.35682 | 31860 ft | 378 kts | 239° |
| 2026-05-08 14:14 | 38.01369 | -80.38108 | 31661 ft | 362 kts | 239° |
| 2026-05-08 14:14 | 37.99722 | -80.40474 | 31500 ft | 365 kts | 240° |
| 2026-05-08 14:14 | 37.98050 | -80.42913 | 31333 ft | 369 kts | 240° |
| 2026-05-08 14:14 | 37.96365 | -80.45359 | 31188 ft | 369 kts | 239° |
| 2026-05-08 14:15 | 37.94670 | -80.47796 | 31017 ft | 370 kts | 239° |
| 2026-05-08 14:15 | 37.92955 | -80.50245 | 30857 ft | 371 kts | 239° |
| 2026-05-08 14:15 | 37.91820 | -80.51864 | 30737 ft | 372 kts | 239° |
| 2026-05-08 14:15 | 37.90100 | -80.54321 | 30564 ft | 373 kts | 239° |
| 2026-05-08 14:16 | 37.88385 | -80.56777 | 30397 ft | 373 kts | 239° |
| 2026-05-08 14:16 | 37.86105 | -80.60043 | 30198 ft | 374 kts | 239° |
| 2026-05-08 14:16 | 37.84942 | -80.61706 | 30038 ft | 374 kts | 239° |
| 2026-05-08 14:16 | 37.83208 | -80.64183 | 29830 ft | 378 kts | 239° |
| 2026-05-08 14:17 | 37.81468 | -80.66666 | 29584 ft | 379 kts | 238° |
| 2026-05-08 14:17 | 37.79721 | -80.69155 | 29398 ft | 379 kts | 238° |
| 2026-05-08 14:17 | 37.77980 | -80.71639 | 29215 ft | 379 kts | 238° |
| 2026-05-08 14:17 | 37.76246 | -80.74114 | 29034 ft | 381 kts | 238° |
| 2026-05-08 14:18 | 37.74489 | -80.76616 | 28843 ft | 380 kts | 238° |
| 2026-05-08 14:18 | 37.72725 | -80.79116 | 28647 ft | 380 kts | 238° |
| 2026-05-08 14:18 | 37.70977 | -80.81596 | 28451 ft | 380 kts | 238° |
| 2026-05-08 14:18 | 37.69206 | -80.84113 | 28252 ft | 382 kts | 238° |
| 2026-05-08 14:19 | 37.67452 | -80.86600 | 28053 ft | 379 kts | 238° |
| 2026-05-08 14:19 | 37.64128 | -80.91689 | 28107 ft | 374 kts | 242° |
| 2026-05-08 14:20 | 37.61013 | -80.96971 | 28109 ft | 376 kts | 241° |
| 2026-05-08 14:20 | 37.57739 | -81.02116 | 28092 ft | 379 kts | 239° |
| 2026-05-08 14:20 | 37.56087 | -81.04714 | 27984 ft | 380 kts | 240° |
| 2026-05-08 14:21 | 37.54475 | -81.07284 | 27662 ft | 366 kts | 240° |
| 2026-05-08 14:21 | 37.52921 | -81.09750 | 27380 ft | 347 kts | 240° |
| 2026-05-08 14:21 | 37.51443 | -81.12099 | 27112 ft | 342 kts | 240° |
| 2026-05-08 14:21 | 37.49954 | -81.14492 | 26837 ft | 349 kts | 240° |
| 2026-05-08 14:22 | 37.48447 | -81.16902 | 26556 ft | 350 kts | 240° |
| 2026-05-08 14:22 | 37.46954 | -81.19260 | 26277 ft | 350 kts | 239° |
| 2026-05-08 14:22 | 37.45432 | -81.21648 | 26008 ft | 349 kts | 239° |
| 2026-05-08 14:22 | 37.43921 | -81.24023 | 25746 ft | 349 kts | 239° |
| 2026-05-08 14:23 | 37.42408 | -81.26409 | 25478 ft | 349 kts | 239° |
| 2026-05-08 14:23 | 37.40897 | -81.28792 | 25209 ft | 348 kts | 239° |
| 2026-05-08 14:23 | 37.39386 | -81.31174 | 24937 ft | 350 kts | 239° |
| 2026-05-08 14:23 | 37.37865 | -81.33570 | 24668 ft | 350 kts | 239° |
| 2026-05-08 14:24 | 37.36358 | -81.35938 | 24411 ft | 349 kts | 238° |
| 2026-05-08 14:24 | 37.34845 | -81.38315 | 24061 ft | 349 kts | 238° |
| 2026-05-08 14:24 | 37.33331 | -81.40691 | 23717 ft | 345 kts | 238° |
| 2026-05-08 14:24 | 37.31827 | -81.43053 | 23231 ft | 343 kts | 238° |
| 2026-05-08 14:25 | 37.30361 | -81.45350 | 22699 ft | 342 kts | 238° |
| 2026-05-08 14:25 | 37.28874 | -81.47678 | 22157 ft | 340 kts | 238° |
| 2026-05-08 14:25 | 37.27395 | -81.49997 | 21620 ft | 339 kts | 238° |
| 2026-05-08 14:25 | 37.25927 | -81.52290 | 21096 ft | 337 kts | 238° |
| 2026-05-08 14:26 | 37.24466 | -81.54575 | 20605 ft | 334 kts | 238° |
| 2026-05-08 14:26 | 37.23017 | -81.56844 | 20139 ft | 332 kts | 238° |
| 2026-05-08 14:26 | 37.21572 | -81.59107 | 19657 ft | 330 kts | 238° |
| 2026-05-08 14:26 | 37.20155 | -81.61322 | 19182 ft | 329 kts | 238° |
| 2026-05-08 14:27 | 37.18727 | -81.63553 | 18709 ft | 327 kts | 238° |
| 2026-05-08 14:27 | 37.17311 | -81.65780 | 18194 ft | 326 kts | 238° |
| 2026-05-08 14:27 | 37.15896 | -81.67989 | 17691 ft | 326 kts | 238° |
| 2026-05-08 14:27 | 37.14474 | -81.70196 | 17161 ft | 325 kts | 237° |
| 2026-05-08 14:28 | 37.13032 | -81.72375 | 16639 ft | 324 kts | 236° |
| 2026-05-08 14:28 | 37.11583 | -81.74529 | 16143 ft | 323 kts | 237° |
| 2026-05-08 14:28 | 37.10059 | -81.76611 | 15655 ft | 326 kts | 231° |
| 2026-05-08 14:28 | 37.08295 | -81.78417 | 15159 ft | 330 kts | 223° |
| 2026-05-08 14:29 | 37.06369 | -81.80009 | 14675 ft | 331 kts | 220° |
| 2026-05-08 14:29 | 37.04462 | -81.81603 | 14219 ft | 327 kts | 223° |
| 2026-05-08 14:29 | 37.02692 | -81.83286 | 13728 ft | 323 kts | 226° |
| 2026-05-08 14:29 | 37.00963 | -81.85079 | 13187 ft | 322 kts | 226° |
| 2026-05-08 14:30 | 36.99263 | -81.86871 | 12678 ft | 319 kts | 226° |
| 2026-05-08 14:30 | 36.97571 | -81.88678 | 12163 ft | 319 kts | 226° |
| 2026-05-08 14:30 | 36.95889 | -81.90495 | 11639 ft | 318 kts | 226° |
| 2026-05-08 14:30 | 36.94239 | -81.92319 | 11144 ft | 316 kts | 226° |
| 2026-05-08 14:31 | 36.92599 | -81.94177 | 10839 ft | 320 kts | 226° |
| 2026-05-08 14:31 | 36.90980 | -81.96040 | 10611 ft | 316 kts | 226° |
| 2026-05-08 14:31 | 36.89367 | -81.97915 | 10377 ft | 314 kts | 226° |
| 2026-05-08 14:32 | 36.86194 | -82.01651 | 10012 ft | 311 kts | 226° |
| 2026-05-08 14:32 | 36.84656 | -82.03469 | 10617 ft | 308 kts | 226° |
| 2026-05-08 14:32 | 36.83049 | -82.05345 | 10357 ft | 322 kts | 226° |
| 2026-05-08 14:32 | 36.81382 | -82.07269 | 9111 ft | 328 kts | 225° |
| 2026-05-08 14:33 | 36.79760 | -82.09216 | 7947 ft | 317 kts | 226° |
| 2026-05-08 14:33 | 36.78250 | -82.11126 | 7056 ft | 306 kts | 230° |
| 2026-05-08 14:33 | 36.76842 | -82.13128 | 6134 ft | 303 kts | 229° |
| 2026-05-08 14:33 | 36.75415 | -82.15041 | 6039 ft | 307 kts | 228° |
| 2026-05-08 14:34 | 36.73958 | -82.17002 | 5684 ft | 307 kts | 229° |
| 2026-05-08 14:34 | 36.72571 | -82.18946 | 5328 ft | 293 kts | 229° |
| 2026-05-08 14:34 | 36.71298 | -82.20794 | 4982 ft | 273 kts | 229° |
| 2026-05-08 14:34 | 36.70087 | -82.22541 | 4929 ft | 262 kts | 229° |
| 2026-05-08 14:35 | 36.68886 | -82.24251 | 5027 ft | 261 kts | 229° |
| 2026-05-08 14:35 | 36.67658 | -82.25978 | 5061 ft | 270 kts | 228° |
| 2026-05-08 14:35 | 36.66411 | -82.27709 | 5055 ft | 269 kts | 228° |
| 2026-05-08 14:35 | 36.65157 | -82.29429 | 4925 ft | 265 kts | 227° |
| 2026-05-08 14:36 | 36.63968 | -82.31043 | 4954 ft | 244 kts | 227° |
| 2026-05-08 14:36 | 36.62793 | -82.32609 | 4985 ft | 250 kts | 226° |
| 2026-05-08 14:36 | 36.61601 | -82.34176 | 4971 ft | 253 kts | 226° |
| 2026-05-08 14:36 | 36.60388 | -82.35750 | 4950 ft | 251 kts | 226° |
| 2026-05-08 14:37 | 36.59189 | -82.37284 | 4948 ft | 251 kts | 225° |
| 2026-05-08 14:37 | 36.57952 | -82.38827 | 4945 ft | 252 kts | 224° |
| 2026-05-08 14:37 | 36.56704 | -82.40335 | 4950 ft | 251 kts | 223° |
| 2026-05-08 14:37 | 36.55424 | -82.41840 | 5000 ft | 252 kts | 222° |
| 2026-05-08 14:38 | 36.54138 | -82.43308 | 5000 ft | 252 kts | 221° |
| 2026-05-08 14:38 | 36.52829 | -82.44759 | 4998 ft | 252 kts | 220° |
| 2026-05-08 14:38 | 36.51508 | -82.46184 | 4997 ft | 252 kts | 220° |
| 2026-05-08 14:38 | 36.50170 | -82.47590 | 4990 ft | 251 kts | 219° |
| 2026-05-08 14:39 | 36.49278 | -82.48507 | 4994 ft | 252 kts | 218° |
| 2026-05-08 14:40 | 36.48248 | -82.49545 | 4995 ft | 254 kts | 218° |